Badsey, United Kingdom
Current Conditions -  °F | °C
As of 1:50 PM on Friday 24 Oct 2014 (Local Time) from EGBJ Reporting Station
Broken Clouds Broken Clouds  
Wind Chill: 61°   Ceiling: 1000
Heat Index: 61°   Visibility: 6mi
Dew Point: 59°   Wind: 5mph
Humidity: 94%   Direction: 210°SSW
Pressure: 29.88"   Gusts: NA
Location:  52.09°N, 1.9°W
Report Text: EGBJ 241250Z 21004KT 190V250 9999 SCT008 BKN010 16/15 Q1012
Loading
Personal Weather Stations






























Interactive Weather Map
Tropical Storm Tracking
New forecast layout! Learn more

10-Day Weather Forecast

Advertisements
Track Severe Weather on mobile